sensor_id;sensor_type;location;lat;lon;timestamp;P1;durP1;ratioP1;P2;durP2;ratioP2
18082;SDS011;9168;51.194;6.840;2024-03-07T00:00:21;60.30;;;21.75;;
18082;SDS011;9168;51.194;6.840;2024-03-07T00:02:48;55.83;;;22.27;;
18082;SDS011;9168;51.194;6.840;2024-03-07T00:05:18;63.70;;;22.83;;
18082;SDS011;9168;51.194;6.840;2024-03-07T00:07:47;57.15;;;21.90;;
18082;SDS011;9168;51.194;6.840;2024-03-07T00:10:14;55.40;;;21.92;;
18082;SDS011;9168;51.194;6.840;2024-03-07T00:12:42;57.53;;;22.58;;
18082;SDS011;9168;51.194;6.840;2024-03-07T00:15:10;59.90;;;22.63;;
18082;SDS011;9168;51.194;6.840;2024-03-07T00:17:38;61.67;;;22.23;;
18082;SDS011;9168;51.194;6.840;2024-03-07T00:20:05;59.17;;;22.42;;
18082;SDS011;9168;51.194;6.840;2024-03-07T00:22:35;61.08;;;22.15;;
18082;SDS011;9168;51.194;6.840;2024-03-07T00:25:03;57.78;;;21.65;;
18082;SDS011;9168;51.194;6.840;2024-03-07T00:27:30;53.33;;;21.40;;
18082;SDS011;9168;51.194;6.840;2024-03-07T00:29:58;51.00;;;21.35;;
18082;SDS011;9168;51.194;6.840;2024-03-07T00:32:25;62.20;;;23.88;;
18082;SDS011;9168;51.194;6.840;2024-03-07T00:34:54;58.38;;;20.98;;
18082;SDS011;9168;51.194;6.840;2024-03-07T00:37:22;57.08;;;21.77;;
18082;SDS011;9168;51.194;6.840;2024-03-07T00:39:51;60.28;;;21.15;;
18082;SDS011;9168;51.194;6.840;2024-03-07T00:42:18;57.20;;;20.93;;
18082;SDS011;9168;51.194;6.840;2024-03-07T00:44:45;57.42;;;21.98;;
18082;SDS011;9168;51.194;6.840;2024-03-07T00:47:11;57.75;;;22.27;;
18082;SDS011;9168;51.194;6.840;2024-03-07T00:49:38;62.03;;;21.02;;
18082;SDS011;9168;51.194;6.840;2024-03-07T00:52:05;56.15;;;21.45;;
18082;SDS011;9168;51.194;6.840;2024-03-07T00:54:33;61.45;;;21.45;;
18082;SDS011;9168;51.194;6.840;2024-03-07T00:57:02;55.33;;;20.77;;
18082;SDS011;9168;51.194;6.840;2024-03-07T00:59:29;50.67;;;20.98;;
18082;SDS011;9168;51.194;6.840;2024-03-07T01:01:56;52.20;;;22.00;;
18082;SDS011;9168;51.194;6.840;2024-03-07T01:04:24;58.08;;;21.27;;
18082;SDS011;9168;51.194;6.840;2024-03-07T01:06:55;53.13;;;19.80;;
18082;SDS011;9168;51.194;6.840;2024-03-07T01:09:22;59.63;;;21.38;;
18082;SDS011;9168;51.194;6.840;2024-03-07T01:11:49;54.13;;;20.35;;
18082;SDS011;9168;51.194;6.840;2024-03-07T01:14:17;58.17;;;21.15;;
18082;SDS011;9168;51.194;6.840;2024-03-07T01:16:44;57.35;;;21.02;;
18082;SDS011;9168;51.194;6.840;2024-03-07T01:19:12;52.72;;;19.55;;
18082;SDS011;9168;51.194;6.840;2024-03-07T01:21:40;61.83;;;21.95;;
18082;SDS011;9168;51.194;6.840;2024-03-07T01:24:07;53.20;;;21.60;;
18082;SDS011;9168;51.194;6.840;2024-03-07T01:26:34;54.70;;;21.02;;
18082;SDS011;9168;51.194;6.840;2024-03-07T01:29:01;63.90;;;22.65;;
18082;SDS011;9168;51.194;6.840;2024-03-07T01:31:29;55.92;;;20.60;;
18082;SDS011;9168;51.194;6.840;2024-03-07T01:33:56;57.50;;;21.05;;
18082;SDS011;9168;51.194;6.840;2024-03-07T01:36:23;51.55;;;20.30;;
18082;SDS011;9168;51.194;6.840;2024-03-07T01:38:50;54.88;;;20.23;;
18082;SDS011;9168;51.194;6.840;2024-03-07T01:41:17;50.72;;;19.83;;
18082;SDS011;9168;51.194;6.840;2024-03-07T01:43:44;59.05;;;20.70;;
18082;SDS011;9168;51.194;6.840;2024-03-07T01:46:11;60.92;;;22.05;;
18082;SDS011;9168;51.194;6.840;2024-03-07T01:48:40;49.20;;;20.67;;
18082;SDS011;9168;51.194;6.840;2024-03-07T01:51:07;51.85;;;19.48;;
18082;SDS011;9168;51.194;6.840;2024-03-07T01:53:34;50.88;;;20.38;;
18082;SDS011;9168;51.194;6.840;2024-03-07T01:56:02;55.08;;;19.63;;
18082;SDS011;9168;51.194;6.840;2024-03-07T01:58:30;53.72;;;18.67;;
18082;SDS011;9168;51.194;6.840;2024-03-07T02:00:57;50.53;;;20.17;;
18082;SDS011;9168;51.194;6.840;2024-03-07T02:03:24;54.47;;;19.48;;
18082;SDS011;9168;51.194;6.840;2024-03-07T02:05:53;51.72;;;19.23;;
18082;SDS011;9168;51.194;6.840;2024-03-07T02:08:20;50.90;;;19.17;;
18082;SDS011;9168;51.194;6.840;2024-03-07T02:10:47;53.97;;;19.47;;
18082;SDS011;9168;51.194;6.840;2024-03-07T02:13:14;50.83;;;19.85;;
18082;SDS011;9168;51.194;6.840;2024-03-07T02:15:42;55.75;;;18.90;;
18082;SDS011;9168;51.194;6.840;2024-03-07T02:18:09;46.80;;;18.42;;
18082;SDS011;9168;51.194;6.840;2024-03-07T02:20:36;53.55;;;20.27;;
18082;SDS011;9168;51.194;6.840;2024-03-07T02:23:04;53.95;;;19.70;;
18082;SDS011;9168;51.194;6.840;2024-03-07T02:25:32;52.90;;;19.02;;
18082;SDS011;9168;51.194;6.840;2024-03-07T02:28:02;51.88;;;19.67;;
18082;SDS011;9168;51.194;6.840;2024-03-07T02:30:30;49.30;;;18.88;;
18082;SDS011;9168;51.194;6.840;2024-03-07T02:32:57;48.47;;;18.30;;
18082;SDS011;9168;51.194;6.840;2024-03-07T02:35:31;45.00;;;17.85;;
18082;SDS011;9168;51.194;6.840;2024-03-07T02:37:59;46.00;;;17.92;;
18082;SDS011;9168;51.194;6.840;2024-03-07T02:40:28;50.67;;;19.45;;
18082;SDS011;9168;51.194;6.840;2024-03-07T02:42:55;52.80;;;19.38;;
18082;SDS011;9168;51.194;6.840;2024-03-07T02:45:22;54.50;;;19.00;;
18082;SDS011;9168;51.194;6.840;2024-03-07T02:47:50;43.40;;;16.73;;
18082;SDS011;9168;51.194;6.840;2024-03-07T02:50:18;40.60;;;17.27;;
18082;SDS011;9168;51.194;6.840;2024-03-07T02:52:46;42.15;;;15.95;;
18082;SDS011;9168;51.194;6.840;2024-03-07T02:55:14;51.17;;;19.15;;
18082;SDS011;9168;51.194;6.840;2024-03-07T02:57:42;45.38;;;17.50;;
18082;SDS011;9168;51.194;6.840;2024-03-07T03:00:09;48.03;;;18.48;;
18082;SDS011;9168;51.194;6.840;2024-03-07T03:02:45;42.38;;;17.17;;
18082;SDS011;9168;51.194;6.840;2024-03-07T03:05:12;44.90;;;18.65;;
18082;SDS011;9168;51.194;6.840;2024-03-07T03:07:40;46.17;;;17.53;;
18082;SDS011;9168;51.194;6.840;2024-03-07T03:10:07;51.70;;;19.25;;
18082;SDS011;9168;51.194;6.840;2024-03-07T03:12:36;45.43;;;17.83;;
18082;SDS011;9168;51.194;6.840;2024-03-07T03:15:05;48.33;;;19.52;;
18082;SDS011;9168;51.194;6.840;2024-03-07T03:17:35;45.55;;;17.67;;
18082;SDS011;9168;51.194;6.840;2024-03-07T03:20:02;50.53;;;18.38;;
18082;SDS011;9168;51.194;6.840;2024-03-07T03:22:34;44.70;;;16.75;;
18082;SDS011;9168;51.194;6.840;2024-03-07T03:25:02;49.13;;;17.50;;
18082;SDS011;9168;51.194;6.840;2024-03-07T03:27:29;50.05;;;18.77;;
18082;SDS011;9168;51.194;6.840;2024-03-07T03:29:56;48.87;;;19.10;;
18082;SDS011;9168;51.194;6.840;2024-03-07T03:32:26;45.75;;;18.65;;
18082;SDS011;9168;51.194;6.840;2024-03-07T03:34:54;48.08;;;18.67;;
18082;SDS011;9168;51.194;6.840;2024-03-07T03:37:21;51.55;;;18.52;;
18082;SDS011;9168;51.194;6.840;2024-03-07T03:39:48;47.15;;;16.52;;
18082;SDS011;9168;51.194;6.840;2024-03-07T03:42:15;41.45;;;16.85;;
18082;SDS011;9168;51.194;6.840;2024-03-07T03:44:42;42.38;;;16.42;;
18082;SDS011;9168;51.194;6.840;2024-03-07T03:47:09;43.37;;;17.33;;
18082;SDS011;9168;51.194;6.840;2024-03-07T03:49:37;40.20;;;16.67;;
18082;SDS011;9168;51.194;6.840;2024-03-07T03:52:04;44.38;;;18.20;;
18082;SDS011;9168;51.194;6.840;2024-03-07T03:54:31;34.30;;;16.33;;
18082;SDS011;9168;51.194;6.840;2024-03-07T03:56:58;43.20;;;17.63;;
18082;SDS011;9168;51.194;6.840;2024-03-07T03:59:26;42.42;;;16.65;;
18082;SDS011;9168;51.194;6.840;2024-03-07T04:01:53;44.60;;;16.77;;
18082;SDS011;9168;51.194;6.840;2024-03-07T04:04:19;49.50;;;18.77;;
18082;SDS011;9168;51.194;6.840;2024-03-07T04:06:48;45.07;;;17.33;;
18082;SDS011;9168;51.194;6.840;2024-03-07T04:09:15;39.33;;;16.20;;
18082;SDS011;9168;51.194;6.840;2024-03-07T04:11:44;48.33;;;17.75;;
18082;SDS011;9168;51.194;6.840;2024-03-07T04:14:11;46.30;;;18.23;;
18082;SDS011;9168;51.194;6.840;2024-03-07T04:16:38;43.10;;;17.17;;
18082;SDS011;9168;51.194;6.840;2024-03-07T04:19:06;49.50;;;18.25;;
18082;SDS011;9168;51.194;6.840;2024-03-07T04:21:34;50.72;;;18.33;;
18082;SDS011;9168;51.194;6.840;2024-03-07T04:24:03;46.30;;;18.60;;
18082;SDS011;9168;51.194;6.840;2024-03-07T04:26:30;45.83;;;18.23;;
18082;SDS011;9168;51.194;6.840;2024-03-07T04:28:57;56.17;;;19.75;;
18082;SDS011;9168;51.194;6.840;2024-03-07T04:31:24;50.95;;;20.38;;
18082;SDS011;9168;51.194;6.840;2024-03-07T04:33:51;44.93;;;17.83;;
18082;SDS011;9168;51.194;6.840;2024-03-07T04:36:18;45.17;;;17.60;;
18082;SDS011;9168;51.194;6.840;2024-03-07T04:38:45;42.45;;;16.45;;
18082;SDS011;9168;51.194;6.840;2024-03-07T04:41:14;41.60;;;18.23;;
18082;SDS011;9168;51.194;6.840;2024-03-07T04:43:41;44.58;;;17.15;;
18082;SDS011;9168;51.194;6.840;2024-03-07T04:46:08;45.72;;;17.38;;
18082;SDS011;9168;51.194;6.840;2024-03-07T04:48:35;49.60;;;18.98;;
18082;SDS011;9168;51.194;6.840;2024-03-07T04:51:03;45.92;;;17.90;;
18082;SDS011;9168;51.194;6.840;2024-03-07T04:53:30;40.20;;;16.55;;
18082;SDS011;9168;51.194;6.840;2024-03-07T04:55:57;43.10;;;18.02;;
18082;SDS011;9168;51.194;6.840;2024-03-07T04:58:25;50.80;;;18.53;;
18082;SDS011;9168;51.194;6.840;2024-03-07T05:00:52;42.87;;;17.57;;
18082;SDS011;9168;51.194;6.840;2024-03-07T05:03:19;41.63;;;17.98;;
18082;SDS011;9168;51.194;6.840;2024-03-07T05:05:46;44.75;;;18.60;;
18082;SDS011;9168;51.194;6.840;2024-03-07T05:08:13;41.50;;;16.97;;
18082;SDS011;9168;51.194;6.840;2024-03-07T05:10:40;43.67;;;16.70;;
18082;SDS011;9168;51.194;6.840;2024-03-07T05:13:07;40.40;;;16.52;;
18082;SDS011;9168;51.194;6.840;2024-03-07T05:15:35;38.22;;;16.05;;
18082;SDS011;9168;51.194;6.840;2024-03-07T05:18:02;40.10;;;16.70;;
18082;SDS011;9168;51.194;6.840;2024-03-07T05:20:29;44.05;;;17.38;;
18082;SDS011;9168;51.194;6.840;2024-03-07T05:22:56;42.13;;;15.95;;
18082;SDS011;9168;51.194;6.840;2024-03-07T05:25:24;36.92;;;15.50;;
18082;SDS011;9168;51.194;6.840;2024-03-07T05:27:51;41.67;;;16.50;;
18082;SDS011;9168;51.194;6.840;2024-03-07T05:30:19;40.83;;;15.95;;
18082;SDS011;9168;51.194;6.840;2024-03-07T05:32:49;40.65;;;16.30;;
18082;SDS011;9168;51.194;6.840;2024-03-07T05:35:16;37.42;;;15.40;;
18082;SDS011;9168;51.194;6.840;2024-03-07T05:37:43;40.78;;;16.45;;
18082;SDS011;9168;51.194;6.840;2024-03-07T05:40:12;40.70;;;16.13;;
18082;SDS011;9168;51.194;6.840;2024-03-07T05:42:39;35.77;;;15.27;;
18082;SDS011;9168;51.194;6.840;2024-03-07T05:45:06;42.67;;;16.27;;
18082;SDS011;9168;51.194;6.840;2024-03-07T05:47:35;42.27;;;15.20;;
18082;SDS011;9168;51.194;6.840;2024-03-07T05:50:04;43.58;;;16.23;;
18082;SDS011;9168;51.194;6.840;2024-03-07T05:52:34;42.17;;;15.77;;
18082;SDS011;9168;51.194;6.840;2024-03-07T05:55:01;44.47;;;17.00;;
18082;SDS011;9168;51.194;6.840;2024-03-07T05:57:28;38.42;;;15.73;;
18082;SDS011;9168;51.194;6.840;2024-03-07T05:59:55;45.15;;;17.38;;
18082;SDS011;9168;51.194;6.840;2024-03-07T06:02:22;35.53;;;15.70;;
18082;SDS011;9168;51.194;6.840;2024-03-07T06:04:49;40.85;;;15.65;;
18082;SDS011;9168;51.194;6.840;2024-03-07T06:07:17;37.85;;;15.48;;
18082;SDS011;9168;51.194;6.840;2024-03-07T06:09:44;41.43;;;16.47;;
18082;SDS011;9168;51.194;6.840;2024-03-07T06:12:11;39.97;;;16.27;;
18082;SDS011;9168;51.194;6.840;2024-03-07T06:14:38;40.90;;;16.27;;
18082;SDS011;9168;51.194;6.840;2024-03-07T06:17:05;41.10;;;16.40;;
18082;SDS011;9168;51.194;6.840;2024-03-07T06:19:32;43.37;;;17.40;;
18082;SDS011;9168;51.194;6.840;2024-03-07T06:21:59;39.85;;;16.08;;
18082;SDS011;9168;51.194;6.840;2024-03-07T06:24:27;41.77;;;16.73;;
18082;SDS011;9168;51.194;6.840;2024-03-07T06:26:55;44.55;;;16.60;;
18082;SDS011;9168;51.194;6.840;2024-03-07T06:29:28;42.60;;;18.00;;
18082;SDS011;9168;51.194;6.840;2024-03-07T06:31:55;41.67;;;16.58;;
18082;SDS011;9168;51.194;6.840;2024-03-07T06:34:23;43.47;;;16.15;;
18082;SDS011;9168;51.194;6.840;2024-03-07T06:36:50;44.13;;;17.50;;
18082;SDS011;9168;51.194;6.840;2024-03-07T06:39:17;39.17;;;17.50;;
18082;SDS011;9168;51.194;6.840;2024-03-07T06:41:48;41.25;;;16.42;;
18082;SDS011;9168;51.194;6.840;2024-03-07T06:44:15;40.28;;;15.95;;
18082;SDS011;9168;51.194;6.840;2024-03-07T06:46:42;41.67;;;17.00;;
18082;SDS011;9168;51.194;6.840;2024-03-07T06:49:10;40.63;;;16.65;;
18082;SDS011;9168;51.194;6.840;2024-03-07T06:51:38;50.07;;;17.57;;
18082;SDS011;9168;51.194;6.840;2024-03-07T06:54:05;39.22;;;16.08;;
18082;SDS011;9168;51.194;6.840;2024-03-07T06:56:34;42.63;;;16.70;;
18082;SDS011;9168;51.194;6.840;2024-03-07T06:59:03;49.58;;;16.83;;
18082;SDS011;9168;51.194;6.840;2024-03-07T07:01:30;46.20;;;16.83;;
18082;SDS011;9168;51.194;6.840;2024-03-07T07:03:58;38.90;;;16.63;;
18082;SDS011;9168;51.194;6.840;2024-03-07T07:06:28;44.67;;;17.57;;
18082;SDS011;9168;51.194;6.840;2024-03-07T07:08:55;46.97;;;17.98;;
18082;SDS011;9168;51.194;6.840;2024-03-07T07:11:23;40.30;;;15.73;;
18082;SDS011;9168;51.194;6.840;2024-03-07T07:13:50;51.17;;;17.65;;
18082;SDS011;9168;51.194;6.840;2024-03-07T07:16:19;41.33;;;17.02;;
18082;SDS011;9168;51.194;6.840;2024-03-07T07:18:46;41.83;;;17.20;;
18082;SDS011;9168;51.194;6.840;2024-03-07T07:21:13;42.03;;;16.85;;
18082;SDS011;9168;51.194;6.840;2024-03-07T07:23:41;43.63;;;17.85;;
18082;SDS011;9168;51.194;6.840;2024-03-07T07:26:08;44.63;;;17.30;;
18082;SDS011;9168;51.194;6.840;2024-03-07T07:28:35;43.00;;;16.75;;
18082;SDS011;9168;51.194;6.840;2024-03-07T07:31:02;46.47;;;16.70;;
18082;SDS011;9168;51.194;6.840;2024-03-07T07:33:32;45.67;;;17.92;;
18082;SDS011;9168;51.194;6.840;2024-03-07T07:35:58;46.35;;;17.60;;
18082;SDS011;9168;51.194;6.840;2024-03-07T07:38:25;43.05;;;16.92;;
18082;SDS011;9168;51.194;6.840;2024-03-07T07:40:52;46.85;;;17.45;;
18082;SDS011;9168;51.194;6.840;2024-03-07T07:43:19;45.17;;;17.87;;
18082;SDS011;9168;51.194;6.840;2024-03-07T07:45:46;45.25;;;17.38;;
18082;SDS011;9168;51.194;6.840;2024-03-07T07:48:12;40.35;;;16.77;;
18082;SDS011;9168;51.194;6.840;2024-03-07T07:50:43;43.28;;;17.48;;
18082;SDS011;9168;51.194;6.840;2024-03-07T07:53:09;39.33;;;16.80;;
18082;SDS011;9168;51.194;6.840;2024-03-07T07:55:37;38.92;;;15.63;;
18082;SDS011;9168;51.194;6.840;2024-03-07T07:58:05;45.03;;;16.65;;
18082;SDS011;9168;51.194;6.840;2024-03-07T08:00:32;42.85;;;15.82;;
18082;SDS011;9168;51.194;6.840;2024-03-07T08:03:00;39.42;;;16.38;;
18082;SDS011;9168;51.194;6.840;2024-03-07T08:05:30;35.05;;;14.68;;
18082;SDS011;9168;51.194;6.840;2024-03-07T08:08:00;34.75;;;15.80;;
18082;SDS011;9168;51.194;6.840;2024-03-07T08:10:30;34.78;;;13.75;;
18082;SDS011;9168;51.194;6.840;2024-03-07T08:12:57;36.88;;;14.82;;
18082;SDS011;9168;51.194;6.840;2024-03-07T08:15:25;38.30;;;14.25;;
18082;SDS011;9168;51.194;6.840;2024-03-07T08:17:53;36.40;;;13.73;;
18082;SDS011;9168;51.194;6.840;2024-03-07T08:20:21;34.00;;;14.82;;
18082;SDS011;9168;51.194;6.840;2024-03-07T08:22:49;36.67;;;14.50;;
18082;SDS011;9168;51.194;6.840;2024-03-07T08:25:20;30.85;;;12.90;;
18082;SDS011;9168;51.194;6.840;2024-03-07T08:27:49;35.83;;;14.00;;
18082;SDS011;9168;51.194;6.840;2024-03-07T08:30:17;29.35;;;13.32;;
18082;SDS011;9168;51.194;6.840;2024-03-07T08:32:45;27.42;;;12.50;;
18082;SDS011;9168;51.194;6.840;2024-03-07T08:35:14;36.53;;;14.23;;
18082;SDS011;9168;51.194;6.840;2024-03-07T08:37:42;27.40;;;12.32;;
18082;SDS011;9168;51.194;6.840;2024-03-07T08:40:10;30.15;;;12.55;;
18082;SDS011;9168;51.194;6.840;2024-03-07T08:42:45;29.55;;;12.52;;
18082;SDS011;9168;51.194;6.840;2024-03-07T08:45:13;26.65;;;12.02;;
18082;SDS011;9168;51.194;6.840;2024-03-07T08:47:44;30.02;;;11.13;;
18082;SDS011;9168;51.194;6.840;2024-03-07T08:50:11;24.20;;;11.60;;
18082;SDS011;9168;51.194;6.840;2024-03-07T08:52:40;26.75;;;10.93;;
18082;SDS011;9168;51.194;6.840;2024-03-07T08:55:08;24.77;;;10.55;;
18082;SDS011;9168;51.194;6.840;2024-03-07T08:57:37;28.08;;;10.73;;
18082;SDS011;9168;51.194;6.840;2024-03-07T09:00:06;25.08;;;10.50;;
18082;SDS011;9168;51.194;6.840;2024-03-07T09:02:35;25.45;;;10.98;;
18082;SDS011;9168;51.194;6.840;2024-03-07T09:05:04;31.92;;;12.32;;
18082;SDS011;9168;51.194;6.840;2024-03-07T09:07:32;32.75;;;11.65;;
18082;SDS011;9168;51.194;6.840;2024-03-07T09:09:59;33.65;;;11.93;;
18082;SDS011;9168;51.194;6.840;2024-03-07T09:12:29;29.30;;;11.15;;
18082;SDS011;9168;51.194;6.840;2024-03-07T09:14:56;26.30;;;11.13;;
18082;SDS011;9168;51.194;6.840;2024-03-07T09:17:24;27.45;;;11.38;;
18082;SDS011;9168;51.194;6.840;2024-03-07T09:19:51;24.00;;;10.32;;
18082;SDS011;9168;51.194;6.840;2024-03-07T09:22:18;24.52;;;11.02;;
18082;SDS011;9168;51.194;6.840;2024-03-07T09:24:45;26.35;;;10.82;;
18082;SDS011;9168;51.194;6.840;2024-03-07T09:27:12;25.67;;;9.90;;
18082;SDS011;9168;51.194;6.840;2024-03-07T09:29:40;25.33;;;10.75;;
18082;SDS011;9168;51.194;6.840;2024-03-07T09:32:08;22.73;;;10.35;;
18082;SDS011;9168;51.194;6.840;2024-03-07T09:34:36;22.55;;;9.85;;
18082;SDS011;9168;51.194;6.840;2024-03-07T09:37:03;28.52;;;10.10;;
18082;SDS011;9168;51.194;6.840;2024-03-07T09:39:32;21.27;;;9.13;;
18082;SDS011;9168;51.194;6.840;2024-03-07T09:42:00;23.40;;;10.07;;
18082;SDS011;9168;51.194;6.840;2024-03-07T09:44:27;26.20;;;10.48;;
18082;SDS011;9168;51.194;6.840;2024-03-07T09:46:55;25.48;;;10.48;;
18082;SDS011;9168;51.194;6.840;2024-03-07T09:49:23;22.23;;;9.50;;
18082;SDS011;9168;51.194;6.840;2024-03-07T09:51:52;22.13;;;9.32;;
18082;SDS011;9168;51.194;6.840;2024-03-07T09:54:22;23.67;;;9.63;;
18082;SDS011;9168;51.194;6.840;2024-03-07T09:56:50;29.88;;;10.32;;
18082;SDS011;9168;51.194;6.840;2024-03-07T09:59:19;22.17;;;9.23;;
18082;SDS011;9168;51.194;6.840;2024-03-07T10:01:51;22.10;;;9.68;;
18082;SDS011;9168;51.194;6.840;2024-03-07T10:04:24;24.63;;;9.20;;
18082;SDS011;9168;51.194;6.840;2024-03-07T10:06:57;24.33;;;9.68;;
18082;SDS011;9168;51.194;6.840;2024-03-07T10:09:24;22.58;;;9.25;;
18082;SDS011;9168;51.194;6.840;2024-03-07T10:11:55;20.52;;;9.40;;
18082;SDS011;9168;51.194;6.840;2024-03-07T10:14:23;24.58;;;10.23;;
18082;SDS011;9168;51.194;6.840;2024-03-07T10:16:50;24.88;;;8.95;;
18082;SDS011;9168;51.194;6.840;2024-03-07T10:19:21;22.35;;;9.73;;
18082;SDS011;9168;51.194;6.840;2024-03-07T10:21:48;23.35;;;9.25;;
18082;SDS011;9168;51.194;6.840;2024-03-07T10:24:20;25.42;;;10.43;;
18082;SDS011;9168;51.194;6.840;2024-03-07T10:26:51;23.15;;;10.23;;
18082;SDS011;9168;51.194;6.840;2024-03-07T10:29:18;23.42;;;10.18;;
18082;SDS011;9168;51.194;6.840;2024-03-07T10:31:45;20.30;;;9.25;;
18082;SDS011;9168;51.194;6.840;2024-03-07T10:34:12;25.40;;;10.45;;
18082;SDS011;9168;51.194;6.840;2024-03-07T10:36:40;29.90;;;11.25;;
18082;SDS011;9168;51.194;6.840;2024-03-07T10:39:09;24.13;;;10.52;;
18082;SDS011;9168;51.194;6.840;2024-03-07T10:41:42;19.88;;;9.38;;
18082;SDS011;9168;51.194;6.840;2024-03-07T10:44:18;23.67;;;10.18;;
18082;SDS011;9168;51.194;6.840;2024-03-07T10:46:50;26.85;;;10.88;;
18082;SDS011;9168;51.194;6.840;2024-03-07T10:49:19;22.02;;;10.15;;
18082;SDS011;9168;51.194;6.840;2024-03-07T10:51:51;20.88;;;9.50;;
18082;SDS011;9168;51.194;6.840;2024-03-07T10:54:29;29.52;;;10.10;;
18082;SDS011;9168;51.194;6.840;2024-03-07T10:57:09;22.15;;;9.32;;
18082;SDS011;9168;51.194;6.840;2024-03-07T10:59:45;28.00;;;9.43;;
18082;SDS011;9168;51.194;6.840;2024-03-07T11:02:18;21.05;;;10.20;;
18082;SDS011;9168;51.194;6.840;2024-03-07T11:04:53;22.52;;;9.43;;
18082;SDS011;9168;51.194;6.840;2024-03-07T11:07:22;25.10;;;9.80;;
18082;SDS011;9168;51.194;6.840;2024-03-07T11:09:49;21.70;;;10.05;;
18082;SDS011;9168;51.194;6.840;2024-03-07T11:12:19;22.67;;;10.05;;
18082;SDS011;9168;51.194;6.840;2024-03-07T11:14:49;23.73;;;9.02;;
18082;SDS011;9168;51.194;6.840;2024-03-07T11:17:18;21.02;;;10.00;;
18082;SDS011;9168;51.194;6.840;2024-03-07T11:19:46;22.80;;;9.45;;
18082;SDS011;9168;51.194;6.840;2024-03-07T11:22:27;21.55;;;9.35;;
18082;SDS011;9168;51.194;6.840;2024-03-07T11:25:01;22.95;;;8.48;;
18082;SDS011;9168;51.194;6.840;2024-03-07T11:27:33;18.98;;;9.00;;
18082;SDS011;9168;51.194;6.840;2024-03-07T11:30:07;28.92;;;9.48;;
18082;SDS011;9168;51.194;6.840;2024-03-07T11:32:35;21.02;;;9.13;;
18082;SDS011;9168;51.194;6.840;2024-03-07T11:35:04;18.25;;;8.35;;
18082;SDS011;9168;51.194;6.840;2024-03-07T11:37:39;22.35;;;9.10;;
18082;SDS011;9168;51.194;6.840;2024-03-07T11:40:09;20.42;;;7.85;;
18082;SDS011;9168;51.194;6.840;2024-03-07T11:42:45;18.58;;;7.72;;
18082;SDS011;9168;51.194;6.840;2024-03-07T11:45:13;18.48;;;8.00;;
18082;SDS011;9168;51.194;6.840;2024-03-07T11:47:50;19.17;;;8.25;;
18082;SDS011;9168;51.194;6.840;2024-03-07T11:50:22;17.45;;;7.28;;
18082;SDS011;9168;51.194;6.840;2024-03-07T11:52:50;17.92;;;7.50;;
18082;SDS011;9168;51.194;6.840;2024-03-07T11:55:18;15.68;;;7.85;;
18082;SDS011;9168;51.194;6.840;2024-03-07T11:57:48;20.08;;;8.05;;
18082;SDS011;9168;51.194;6.840;2024-03-07T12:00:17;16.60;;;7.68;;
18082;SDS011;9168;51.194;6.840;2024-03-07T12:02:45;21.67;;;7.60;;
18082;SDS011;9168;51.194;6.840;2024-03-07T12:05:13;16.38;;;7.85;;
18082;SDS011;9168;51.194;6.840;2024-03-07T12:07:41;17.75;;;7.45;;
18082;SDS011;9168;51.194;6.840;2024-03-07T12:10:09;16.48;;;7.45;;
18082;SDS011;9168;51.194;6.840;2024-03-07T12:12:36;15.77;;;7.70;;
18082;SDS011;9168;51.194;6.840;2024-03-07T12:15:06;14.55;;;7.82;;
18082;SDS011;9168;51.194;6.840;2024-03-07T12:17:40;18.73;;;8.90;;
18082;SDS011;9168;51.194;6.840;2024-03-07T12:20:08;14.10;;;6.90;;
18082;SDS011;9168;51.194;6.840;2024-03-07T12:22:50;16.35;;;6.75;;
18082;SDS011;9168;51.194;6.840;2024-03-07T12:25:18;16.75;;;7.03;;
18082;SDS011;9168;51.194;6.840;2024-03-07T12:27:47;15.43;;;7.18;;
18082;SDS011;9168;51.194;6.840;2024-03-07T12:30:16;17.20;;;7.18;;
18082;SDS011;9168;51.194;6.840;2024-03-07T12:32:47;15.73;;;6.65;;
18082;SDS011;9168;51.194;6.840;2024-03-07T12:35:15;14.63;;;6.35;;
18082;SDS011;9168;51.194;6.840;2024-03-07T12:37:43;19.65;;;7.43;;
18082;SDS011;9168;51.194;6.840;2024-03-07T12:40:11;19.38;;;6.70;;
18082;SDS011;9168;51.194;6.840;2024-03-07T12:42:45;16.08;;;6.78;;
18082;SDS011;9168;51.194;6.840;2024-03-07T12:45:12;16.17;;;7.00;;
18082;SDS011;9168;51.194;6.840;2024-03-07T12:47:45;15.60;;;6.72;;
18082;SDS011;9168;51.194;6.840;2024-03-07T12:50:15;16.02;;;6.68;;
18082;SDS011;9168;51.194;6.840;2024-03-07T12:52:43;16.48;;;6.75;;
18082;SDS011;9168;51.194;6.840;2024-03-07T12:55:10;13.98;;;6.57;;
18082;SDS011;9168;51.194;6.840;2024-03-07T12:57:38;16.52;;;7.35;;
18082;SDS011;9168;51.194;6.840;2024-03-07T13:00:06;13.63;;;6.05;;
18082;SDS011;9168;51.194;6.840;2024-03-07T13:02:45;11.20;;;5.40;;
18082;SDS011;9168;51.194;6.840;2024-03-07T13:05:12;12.63;;;5.55;;
18082;SDS011;9168;51.194;6.840;2024-03-07T13:07:44;11.20;;;4.95;;
18082;SDS011;9168;51.194;6.840;2024-03-07T13:10:12;11.90;;;4.95;;
18082;SDS011;9168;51.194;6.840;2024-03-07T13:12:41;10.57;;;5.15;;
18082;SDS011;9168;51.194;6.840;2024-03-07T13:15:10;14.13;;;5.32;;
18082;SDS011;9168;51.194;6.840;2024-03-07T13:17:37;15.20;;;4.75;;
18082;SDS011;9168;51.194;6.840;2024-03-07T13:20:08;11.15;;;5.32;;
18082;SDS011;9168;51.194;6.840;2024-03-07T13:22:38;14.32;;;5.03;;
18082;SDS011;9168;51.194;6.840;2024-03-07T13:25:07;12.05;;;5.30;;
18082;SDS011;9168;51.194;6.840;2024-03-07T13:27:39;11.00;;;5.30;;
18082;SDS011;9168;51.194;6.840;2024-03-07T13:30:09;10.20;;;5.22;;
18082;SDS011;9168;51.194;6.840;2024-03-07T13:32:49;11.82;;;5.35;;
18082;SDS011;9168;51.194;6.840;2024-03-07T13:35:19;13.02;;;5.63;;
18082;SDS011;9168;51.194;6.840;2024-03-07T13:37:47;11.88;;;5.85;;
18082;SDS011;9168;51.194;6.840;2024-03-07T13:40:15;13.30;;;5.68;;
18082;SDS011;9168;51.194;6.840;2024-03-07T13:42:49;14.45;;;6.60;;
18082;SDS011;9168;51.194;6.840;2024-03-07T13:45:18;12.68;;;6.20;;
18082;SDS011;9168;51.194;6.840;2024-03-07T13:47:47;13.35;;;6.43;;
18082;SDS011;9168;51.194;6.840;2024-03-07T13:50:15;15.35;;;6.47;;
18082;SDS011;9168;51.194;6.840;2024-03-07T13:52:45;14.73;;;6.38;;
18082;SDS011;9168;51.194;6.840;2024-03-07T13:55:30;13.80;;;6.63;;
18082;SDS011;9168;51.194;6.840;2024-03-07T13:58:00;13.40;;;6.28;;
18082;SDS011;9168;51.194;6.840;2024-03-07T14:00:36;16.90;;;6.88;;
18082;SDS011;9168;51.194;6.840;2024-03-07T14:03:44;16.95;;;6.63;;
18082;SDS011;9168;51.194;6.840;2024-03-07T14:06:38;16.17;;;6.50;;
18082;SDS011;9168;51.194;6.840;2024-03-07T14:12:21;16.90;;;5.80;;
18082;SDS011;9168;51.194;6.840;2024-03-07T14:15:17;11.93;;;5.88;;
18082;SDS011;9168;51.194;6.840;2024-03-07T14:18:18;12.48;;;6.25;;
18082;SDS011;9168;51.194;6.840;2024-03-07T14:21:31;15.25;;;5.60;;
18082;SDS011;9168;51.194;6.840;2024-03-07T14:24:23;11.50;;;5.85;;
18082;SDS011;9168;51.194;6.840;2024-03-07T14:27:18;12.18;;;5.65;;
18082;SDS011;9168;51.194;6.840;2024-03-07T14:29:54;10.25;;;5.30;;
18082;SDS011;9168;51.194;6.840;2024-03-07T14:32:38;12.50;;;5.30;;
18082;SDS011;9168;51.194;6.840;2024-03-07T14:35:08;13.73;;;5.10;;
18082;SDS011;9168;51.194;6.840;2024-03-07T14:37:45;12.35;;;5.45;;
18082;SDS011;9168;51.194;6.840;2024-03-07T14:40:16;14.68;;;4.88;;
18082;SDS011;9168;51.194;6.840;2024-03-07T14:42:46;10.25;;;5.53;;
18082;SDS011;9168;51.194;6.840;2024-03-07T14:45:15;10.05;;;4.80;;
18082;SDS011;9168;51.194;6.840;2024-03-07T14:47:47;10.93;;;5.20;;
18082;SDS011;9168;51.194;6.840;2024-03-07T14:50:15;11.60;;;4.82;;
18082;SDS011;9168;51.194;6.840;2024-03-07T14:52:45;9.27;;;4.18;;